createdAt,value
2016-11-25T00:01:03.618Z,99.99
2016-11-25T00:02:14.820Z,99.99
2016-11-25T00:03:25.823Z,99.99
2016-11-25T00:04:36.813Z,99.99
2016-11-25T00:05:47.869Z,99.99
2016-11-25T00:06:58.873Z,99.99
2016-11-25T00:08:10.269Z,99.99
2016-11-25T00:09:21.494Z,99.99
2016-11-25T00:10:32.489Z,99.99
2016-11-25T00:11:43.541Z,99.99
2016-11-25T00:12:54.548Z,99.99
2016-11-25T00:14:05.746Z,99.99
2016-11-25T00:15:16.736Z,99.99
2016-11-25T00:16:27.737Z,99.99
2016-11-25T00:17:38.987Z,99.99
2016-11-25T00:18:49.992Z,99.99
2016-11-25T00:20:00.993Z,99.99
2016-11-25T00:21:12.187Z,99.99
2016-11-25T00:22:23.385Z,99.99
2016-11-25T00:23:34.454Z,99.99
2016-11-25T00:24:45.656Z,99.99
2016-11-25T00:25:56.648Z,99.99
2016-11-25T00:27:07.645Z,99.99
2016-11-25T00:28:18.641Z,99.99
2016-11-25T00:29:29.881Z,99.99
2016-11-25T00:30:41.083Z,99.99
2016-11-25T00:31:52.091Z,99.99
2016-11-25T00:33:03.091Z,99.99
2016-11-25T00:34:14.297Z,99.99
2016-11-25T00:35:25.348Z,99.99
2016-11-25T00:36:36.344Z,99.99
2016-11-25T00:37:47.340Z,99.99
2016-11-25T00:38:58.571Z,99.99
2016-11-25T00:40:09.570Z,99.99
2016-11-25T00:41:20.617Z,99.99
2016-11-25T00:42:31.607Z,99.99
2016-11-25T00:43:42.611Z,99.99
2016-11-25T00:44:53.806Z,99.99
2016-11-25T00:46:04.832Z,99.99
2016-11-25T00:47:15.877Z,99.99
2016-11-25T00:48:27.083Z,99.99
2016-11-25T00:49:38.283Z,99.99
2016-11-25T00:50:49.280Z,99.99
2016-11-25T00:52:00.279Z,99.99
2016-11-25T00:53:11.333Z,99.99
2016-11-25T00:54:22.330Z,99.99
2016-11-25T00:55:33.568Z,99.99
2016-11-25T00:56:44.566Z,99.99
2016-11-25T00:57:55.768Z,99.99
2016-11-25T00:59:06.810Z,99.99
2016-11-25T01:00:17.811Z,99.99
2016-11-25T01:01:28.814Z,99.99
2016-11-25T01:02:40.011Z,99.99
2016-11-25T01:03:51.018Z,99.99
2016-11-25T01:05:02.272Z,99.99
2016-11-25T01:06:13.282Z,99.99
2016-11-25T01:07:24.279Z,99.99
2016-11-25T01:08:35.281Z,99.99
2016-11-25T01:09:46.311Z,99.99
2016-11-25T01:10:57.363Z,99.99
2016-11-25T01:12:08.384Z,99.99
2016-11-25T01:13:19.387Z,99.99
2016-11-25T01:14:30.390Z,99.99
2016-11-25T01:15:41.393Z,99.99
2016-11-25T01:16:52.445Z,99.99
2016-11-25T01:18:03.444Z,99.99
2016-11-25T01:19:14.455Z,99.99
2016-11-25T01:20:25.450Z,99.99
2016-11-25T01:21:36.666Z,99.99
2016-11-25T01:22:47.914Z,99.99
2016-11-25T01:23:58.920Z,99.99
2016-11-25T01:25:10.123Z,99.99
2016-11-25T01:26:21.124Z,99.99
2016-11-25T01:27:32.126Z,99.99
2016-11-25T01:28:43.205Z,99.99
2016-11-25T01:29:54.201Z,99.99
2016-11-25T01:31:05.208Z,99.99
2016-11-25T01:32:16.208Z,99.99
2016-11-25T01:33:27.611Z,99.99
2016-11-25T01:34:38.690Z,99.99
2016-11-25T01:35:49.696Z,99.99
2016-11-25T01:37:00.731Z,99.99
2016-11-25T01:38:11.731Z,99.99
2016-11-25T01:39:22.738Z,99.99
2016-11-25T01:40:33.789Z,99.99
2016-11-25T01:41:45.016Z,99.99
2016-11-25T01:42:56.011Z,99.99
2016-11-25T01:44:07.050Z,99.99
2016-11-25T01:45:18.041Z,99.99
2016-11-25T01:46:29.289Z,99.99
2016-11-25T01:47:40.287Z,99.99
2016-11-25T01:48:51.274Z,99.99
2016-11-25T01:50:02.279Z,99.99
2016-11-25T01:51:13.493Z,99.99
2016-11-25T01:52:24.545Z,99.99
2016-11-25T01:53:35.551Z,99.99
2016-11-25T01:54:46.550Z,99.99
2016-11-25T01:55:57.957Z,99.99
2016-11-25T01:57:08.950Z,99.99
2016-11-25T01:58:19.999Z,99.99
2016-11-25T01:59:31.001Z,99.99
2016-11-25T02:00:42.023Z,99.99
2016-11-25T02:01:53.048Z,99.99
2016-11-25T02:03:04.290Z,99.99
2016-11-25T02:04:15.574Z,99.99
2016-11-25T02:05:26.591Z,99.99
2016-11-25T02:06:37.614Z,99.99
2016-11-25T02:07:48.847Z,99.99
2016-11-25T02:08:59.911Z,99.99
2016-11-25T02:10:11.190Z,99.99
2016-11-25T02:11:22.223Z,99.99
2016-11-25T02:12:33.258Z,99.99
2016-11-25T02:13:44.492Z,99.99
2016-11-25T02:14:55.731Z,99.99
2016-11-25T02:16:07.005Z,99.99
2016-11-25T02:17:18.042Z,99.99
2016-11-25T02:18:29.109Z,99.99
2016-11-25T02:19:40.138Z,99.99
2016-11-25T02:20:51.372Z,99.99
2016-11-25T02:22:02.441Z,99.99
2016-11-25T02:23:13.669Z,99.99
2016-11-25T02:24:24.698Z,99.99
2016-11-25T02:25:35.723Z,99.99
2016-11-25T02:26:46.740Z,99.99
2016-11-25T02:27:57.821Z,99.99
2016-11-25T02:29:08.843Z,99.99
2016-11-25T02:30:19.867Z,99.99
2016-11-25T02:31:30.899Z,99.99
2016-11-25T02:32:42.140Z,99.99
2016-11-25T02:33:53.426Z,99.99
2016-11-25T02:35:04.447Z,99.99
2016-11-25T02:36:15.670Z,99.99
2016-11-25T02:37:26.696Z,99.99
2016-11-25T02:38:37.733Z,99.99
2016-11-25T02:39:48.810Z,99.99
2016-11-25T02:40:59.838Z,99.99
2016-11-25T02:42:10.860Z,99.99
2016-11-25T02:43:21.884Z,99.99
2016-11-25T02:44:32.909Z,99.99
2016-11-25T02:45:44.196Z,99.99
2016-11-25T02:46:55.421Z,99.99
2016-11-25T02:48:06.450Z,99.99
2016-11-25T02:49:17.465Z,99.99
2016-11-25T02:50:28.504Z,99.99
2016-11-25T02:51:39.591Z,99.99
2016-11-25T02:52:50.617Z,99.99
2016-11-25T02:54:01.686Z,99.99
2016-11-25T02:55:12.712Z,99.99
2016-11-25T02:56:23.743Z,99.99
2016-11-25T02:57:34.829Z,99.99
2016-11-25T02:58:45.852Z,99.99
2016-11-25T02:59:57.084Z,99.99
2016-11-25T03:01:08.118Z,99.99
2016-11-25T03:02:19.348Z,99.99
2016-11-25T03:03:30.429Z,99.99
2016-11-25T03:04:41.446Z,99.99
2016-11-25T03:05:52.681Z,99.99
2016-11-25T03:07:03.918Z,99.99
2016-11-25T03:08:14.957Z,99.99
2016-11-25T03:09:26.026Z,99.99
2016-11-25T03:10:37.071Z,99.99
2016-11-25T03:11:48.138Z,99.99
2016-11-25T03:12:59.366Z,99.99
2016-11-25T03:14:10.395Z,99.99
2016-11-25T03:15:21.463Z,99.99
2016-11-25T03:16:32.488Z,99.99
2016-11-25T03:17:43.508Z,99.99
2016-11-25T03:18:54.528Z,99.99
2016-11-25T03:20:05.568Z,99.99
2016-11-25T03:21:16.648Z,99.99
2016-11-25T03:22:27.907Z,99.99
2016-11-25T03:23:38.940Z,99.99
2016-11-25T03:24:50.205Z,99.99
2016-11-25T03:26:01.271Z,99.99
2016-11-25T03:27:12.580Z,99.99
2016-11-25T03:28:23.595Z,99.99
2016-11-25T03:29:34.617Z,99.99
2016-11-25T03:30:45.686Z,99.99
2016-11-25T03:31:56.712Z,99.99
2016-11-25T03:33:07.783Z,99.99
2016-11-25T03:34:18.851Z,99.99
2016-11-25T03:35:30.083Z,99.99
2016-11-25T03:36:41.118Z,99.99
2016-11-25T03:37:52.157Z,99.99
2016-11-25T03:39:03.439Z,99.99
2016-11-25T03:40:14.468Z,99.99
2016-11-25T03:41:25.492Z,99.99
2016-11-25T03:42:36.517Z,99.99
2016-11-25T03:43:47.963Z,99.99
2016-11-25T03:44:59.043Z,99.99
2016-11-25T03:46:10.063Z,99.99
2016-11-25T03:47:21.084Z,99.99
2016-11-25T03:48:32.107Z,99.99
2016-11-25T03:49:43.154Z,99.99
2016-11-25T03:50:54.223Z,99.99
2016-11-25T03:52:05.262Z,99.99
2016-11-25T03:53:16.504Z,99.99
2016-11-25T03:54:27.533Z,99.99
2016-11-25T03:55:38.774Z,99.99
2016-11-25T03:56:49.852Z,99.99
2016-11-25T03:58:00.881Z,99.99
2016-11-25T03:59:12.109Z,99.99
2016-11-25T04:00:23.343Z,99.99
2016-11-25T04:01:34.366Z,99.99
2016-11-25T04:02:45.451Z,99.99
2016-11-25T04:03:56.493Z,99.99
2016-11-25T04:05:07.727Z,99.99
2016-11-25T04:06:18.748Z,99.99
2016-11-25T04:07:29.771Z,99.99
2016-11-25T04:08:40.853Z,99.99
2016-11-25T04:09:51.883Z,99.99
2016-11-25T04:11:02.906Z,99.99
2016-11-25T04:12:13.934Z,99.99
2016-11-25T04:13:24.950Z,99.99
2016-11-25T04:14:36.036Z,99.99
2016-11-25T04:15:47.066Z,99.99
2016-11-25T04:16:58.091Z,99.99
2016-11-25T04:18:09.122Z,99.99
2016-11-25T04:19:20.150Z,99.99
2016-11-25T04:20:31.232Z,99.99
2016-11-25T04:21:42.288Z,99.99
2016-11-25T04:22:53.544Z,99.99
2016-11-25T04:24:04.561Z,99.99
2016-11-25T04:25:15.581Z,99.99
2016-11-25T04:26:26.656Z,99.99
2016-11-25T04:27:37.681Z,99.99
2016-11-25T04:28:48.772Z,99.99
2016-11-25T04:29:59.798Z,99.99
2016-11-25T04:31:10.836Z,99.99
2016-11-25T04:32:21.913Z,99.99
2016-11-25T04:33:32.931Z,99.99
2016-11-25T04:34:43.965Z,99.99
2016-11-25T04:35:55.189Z,99.99
2016-11-25T04:37:06.219Z,99.99
2016-11-25T04:38:17.298Z,99.99
2016-11-25T04:39:28.321Z,99.99
2016-11-25T04:40:39.582Z,99.99
2016-11-25T04:41:50.601Z,99.99
2016-11-25T04:43:01.618Z,99.99
2016-11-25T04:44:12.701Z,99.99
2016-11-25T04:45:23.728Z,99.99
2016-11-25T04:46:34.761Z,99.99
2016-11-25T04:47:45.801Z,99.99
2016-11-25T04:48:56.831Z,99.99
2016-11-25T04:50:08.519Z,99.99
2016-11-25T04:51:19.540Z,99.99
2016-11-25T04:52:30.573Z,99.99
2016-11-25T04:53:41.597Z,99.99
2016-11-25T04:54:52.620Z,99.99
2016-11-25T04:56:03.696Z,99.99
2016-11-25T04:57:14.722Z,99.99
2016-11-25T04:58:25.761Z,99.99
2016-11-25T04:59:36.985Z,99.99
2016-11-25T05:00:48.209Z,99.99
2016-11-25T05:01:59.282Z,99.99
2016-11-25T05:03:10.297Z,99.99
2016-11-25T05:04:21.554Z,99.99
2016-11-25T05:05:32.593Z,99.99
2016-11-25T05:06:43.832Z,99.99
2016-11-25T05:07:54.903Z,99.99
2016-11-25T05:09:05.928Z,99.99
2016-11-25T05:10:17.161Z,99.99
2016-11-25T05:11:28.197Z,99.99
2016-11-25T05:12:39.228Z,99.99
2016-11-25T05:13:50.310Z,99.99
2016-11-25T05:15:01.325Z,99.99
2016-11-25T05:16:12.348Z,99.99
2016-11-25T05:17:23.385Z,99.99
2016-11-25T05:18:34.448Z,99.99
2016-11-25T05:19:45.531Z,99.99
2016-11-25T05:20:56.561Z,99.99
2016-11-25T05:22:07.586Z,99.99
2016-11-25T05:23:18.631Z,99.99
2016-11-25T05:24:29.663Z,99.99
2016-11-25T05:25:40.743Z,99.99
2016-11-25T05:26:51.775Z,99.99
2016-11-25T05:28:02.806Z,99.99
2016-11-25T05:29:13.831Z,99.99
2016-11-25T05:30:24.867Z,99.99
2016-11-25T05:31:35.944Z,99.99
2016-11-25T05:32:47.166Z,99.99
2016-11-25T05:33:58.406Z,99.99
2016-11-25T05:35:09.429Z,99.99
2016-11-25T05:36:20.442Z,99.99
2016-11-25T05:37:31.527Z,99.99
2016-11-25T05:38:42.553Z,99.99
2016-11-25T05:39:53.774Z,99.99
2016-11-25T05:41:04.803Z,99.99
2016-11-25T05:42:15.860Z,99.99
2016-11-25T05:43:26.944Z,99.99
2016-11-25T05:44:37.982Z,99.99
2016-11-25T05:45:49.016Z,99.99
2016-11-25T05:47:00.056Z,99.99
2016-11-25T05:48:11.078Z,99.99
2016-11-25T05:49:22.163Z,99.99
2016-11-25T05:50:33.175Z,99.99
2016-11-25T05:51:44.212Z,99.99
2016-11-25T05:52:55.679Z,99.99
2016-11-25T05:54:06.713Z,99.99
2016-11-25T05:55:17.793Z,99.99
2016-11-25T05:56:28.832Z,99.99
2016-11-25T05:57:40.055Z,99.99
2016-11-25T05:58:51.072Z,99.99
2016-11-25T06:00:02.101Z,99.99
2016-11-25T06:01:13.183Z,99.99
2016-11-25T06:02:24.218Z,99.99
2016-11-25T06:03:35.242Z,99.99
2016-11-25T06:04:46.263Z,99.99
2016-11-25T06:05:57.292Z,99.99
2016-11-25T06:07:08.608Z,99.99
2016-11-25T06:08:19.636Z,99.99
2016-11-25T06:09:30.662Z,99.99
2016-11-25T06:10:41.883Z,99.99
2016-11-25T06:11:52.901Z,99.99
2016-11-25T06:13:03.999Z,99.99
2016-11-25T06:14:15.035Z,99.99
2016-11-25T06:15:26.048Z,99.99
2016-11-25T06:16:37.072Z,99.99
2016-11-25T06:17:48.098Z,99.99
2016-11-25T06:18:59.180Z,99.99
2016-11-25T06:20:10.392Z,99.99
2016-11-25T06:21:21.624Z,99.99
2016-11-25T06:22:32.652Z,99.99
2016-11-25T06:23:43.704Z,99.99
2016-11-25T06:24:54.782Z,99.99
2016-11-25T06:26:05.817Z,99.99
2016-11-25T06:27:16.841Z,99.99
2016-11-25T06:28:27.860Z,99.99
2016-11-25T06:29:38.878Z,99.99
2016-11-25T06:30:49.952Z,99.99
2016-11-25T06:32:00.986Z,99.99
2016-11-25T06:33:12.010Z,99.99
2016-11-25T06:34:23.048Z,99.99
2016-11-25T06:35:34.280Z,99.99
2016-11-25T06:36:45.378Z,99.99
2016-11-25T06:37:56.408Z,99.99
2016-11-25T06:39:07.641Z,99.99
2016-11-25T06:40:18.682Z,99.99
2016-11-25T06:41:29.718Z,99.99
2016-11-25T06:42:41.021Z,99.99
2016-11-25T06:43:52.050Z,99.99
2016-11-25T06:45:03.083Z,99.99
2016-11-25T06:46:14.315Z,99.99
2016-11-25T06:47:25.385Z,99.99
2016-11-25T06:48:36.461Z,99.99
2016-11-25T06:49:47.500Z,99.99
2016-11-25T06:50:58.535Z,99.99
2016-11-25T06:52:09.565Z,99.99
2016-11-25T06:53:20.611Z,99.99
2016-11-25T06:54:31.699Z,99.99
2016-11-25T06:55:42.927Z,99.99
2016-11-25T06:56:53.961Z,99.99
2016-11-25T06:58:05.005Z,99.99
2016-11-25T06:59:16.209Z,99.99
2016-11-25T07:00:27.282Z,99.99
2016-11-25T07:01:38.311Z,99.99
2016-11-25T07:02:49.353Z,99.99
2016-11-25T07:04:00.379Z,99.99
2016-11-25T07:05:11.407Z,99.99
2016-11-25T07:06:22.481Z,99.99
2016-11-25T07:07:33.505Z,99.99
2016-11-25T07:08:44.540Z,99.99
2016-11-25T07:09:55.568Z,99.99
2016-11-25T07:11:06.796Z,99.99
2016-11-25T07:12:17.863Z,99.99
2016-11-25T07:13:28.887Z,99.99
2016-11-25T07:14:39.940Z,99.99
2016-11-25T07:15:50.981Z,99.99
2016-11-25T07:17:01.997Z,99.99
2016-11-25T07:18:13.076Z,99.99
2016-11-25T07:19:24.084Z,99.99
2016-11-25T07:20:35.124Z,99.99
2016-11-25T07:21:50.138Z,99.99
2016-11-25T07:23:01.164Z,99.99
2016-11-25T07:24:12.270Z,99.99
2016-11-25T07:25:23.490Z,99.99
2016-11-25T07:26:34.506Z,99.99
2016-11-25T07:27:45.522Z,99.99
2016-11-25T07:28:56.556Z,99.99
2016-11-25T07:30:07.635Z,99.99
2016-11-25T07:31:18.658Z,99.99
2016-11-25T07:32:29.696Z,99.99
2016-11-25T07:33:40.745Z,99.99
2016-11-25T07:34:51.771Z,99.99
2016-11-25T07:36:03.055Z,99.99
2016-11-25T07:37:14.075Z,99.99
2016-11-25T07:38:25.101Z,99.99
2016-11-25T07:39:36.127Z,99.99
2016-11-25T07:40:47.545Z,99.99
2016-11-25T07:41:58.611Z,99.99
2016-11-25T07:43:09.636Z,99.99
2016-11-25T07:44:20.675Z,99.99
2016-11-25T07:45:31.706Z,99.99
2016-11-25T07:46:42.752Z,99.99
2016-11-25T07:47:53.819Z,99.99
2016-11-25T07:49:04.868Z,99.99
2016-11-25T07:50:15.901Z,99.99
2016-11-25T07:51:26.944Z,99.99
2016-11-25T07:52:37.965Z,99.99
2016-11-25T07:53:49.032Z,99.99
2016-11-25T07:55:00.050Z,99.99
2016-11-25T07:56:11.268Z,99.99
2016-11-25T07:57:22.525Z,99.99
2016-11-25T07:58:33.542Z,99.99
2016-11-25T07:59:44.824Z,99.99
2016-11-25T08:00:55.849Z,99.99
2016-11-25T08:02:06.878Z,99.99
2016-11-25T08:03:17.907Z,99.99
2016-11-25T08:04:28.932Z,99.99
2016-11-25T08:05:40.009Z,99.99
2016-11-25T08:06:51.032Z,99.99
2016-11-25T08:08:02.068Z,99.99
2016-11-25T08:09:13.085Z,99.99
2016-11-25T08:10:24.115Z,99.99
2016-11-25T08:11:35.400Z,99.99
2016-11-25T08:12:46.836Z,99.99
2016-11-25T08:13:57.869Z,99.99
2016-11-25T08:15:08.895Z,99.99
2016-11-25T08:16:19.915Z,99.99
2016-11-25T08:17:30.989Z,99.99
2016-11-25T08:18:42.028Z,99.99
2016-11-25T08:19:53.469Z,99.99
2016-11-25T08:21:04.497Z,99.99
2016-11-25T08:22:15.528Z,99.99
2016-11-25T08:23:26.817Z,99.99
2016-11-25T08:24:37.837Z,99.99
2016-11-25T08:25:48.868Z,99.99
2016-11-25T08:26:59.904Z,99.99
2016-11-25T08:28:10.970Z,99.99
2016-11-25T08:29:22.441Z,99.99
2016-11-25T08:30:33.470Z,99.99
2016-11-25T08:31:44.508Z,99.99
2016-11-25T08:32:55.531Z,99.99
2016-11-25T08:34:06.559Z,99.99
2016-11-25T08:35:17.835Z,99.99
2016-11-25T08:36:28.860Z,99.99
2016-11-25T08:37:39.899Z,99.99
2016-11-25T08:38:50.922Z,99.99
2016-11-25T08:40:01.957Z,99.99
2016-11-25T08:41:13.041Z,99.99
2016-11-25T08:42:24.064Z,99.99
2016-11-25T08:43:35.293Z,99.99
2016-11-25T08:44:46.338Z,99.99
2016-11-25T08:45:57.373Z,99.99
2016-11-25T08:47:08.643Z,99.99
2016-11-25T08:48:19.663Z,99.99
2016-11-25T08:49:30.682Z,99.99
2016-11-25T08:50:41.704Z,99.99
2016-11-25T08:51:52.724Z,99.99
2016-11-25T08:53:03.812Z,99.77
2016-11-25T08:54:14.857Z,98.73
2016-11-25T08:55:25.895Z,98.83
2016-11-25T08:56:36.933Z,99.68
2016-11-25T08:57:47.965Z,99.99
2016-11-25T08:58:59.062Z,99.3
2016-11-25T09:00:10.109Z,97.74
2016-11-25T09:01:21.135Z,97.83
2016-11-25T09:02:32.157Z,97.45
2016-11-25T09:03:43.194Z,97.07
2016-11-25T09:04:54.686Z,96.08
2016-11-25T09:06:05.726Z,94.93
2016-11-25T09:07:16.959Z,93.32
2016-11-25T09:08:28.190Z,93.04
2016-11-25T09:09:39.225Z,92.75
2016-11-25T09:10:50.326Z,92.08
2016-11-25T09:12:01.364Z,91.52
2016-11-25T09:13:12.403Z,90.75
2016-11-25T09:14:23.450Z,90.33
2016-11-25T09:15:34.482Z,90.33
2016-11-25T09:16:45.572Z,89.47
2016-11-25T09:17:56.611Z,89.47
2016-11-25T09:19:07.859Z,89.56
2016-11-25T09:20:18.896Z,87.32
2016-11-25T09:21:29.935Z,87.13
2016-11-25T09:22:41.017Z,87.42
2016-11-25T09:23:52.055Z,86.13
2016-11-25T09:25:03.090Z,83.22
2016-11-25T09:26:14.141Z,81.89
2016-11-25T09:27:25.175Z,81.7
2016-11-25T09:28:36.261Z,81.28
2016-11-25T09:29:47.490Z,81.41
2016-11-25T09:30:58.533Z,80.84
2016-11-25T09:32:09.563Z,80.27
2016-11-25T09:33:20.803Z,81.37
2016-11-25T09:34:31.889Z,82.04
2016-11-25T09:35:42.917Z,81.37
2016-11-25T09:36:53.944Z,81.66
2016-11-25T09:38:05.001Z,80.27
2016-11-25T09:39:16.030Z,80.36
2016-11-25T09:40:27.123Z,79.51
2016-11-25T09:41:38.367Z,78.17
2016-11-25T09:42:49.416Z,79.6
2016-11-25T09:44:00.461Z,79.57
2016-11-25T09:45:11.509Z,79.57
2016-11-25T09:46:22.794Z,78.99
2016-11-25T09:47:33.833Z,79.38
2016-11-25T09:48:45.099Z,79.38
2016-11-25T09:49:56.350Z,79.03
2016-11-25T09:51:07.373Z,78.08
2016-11-25T09:52:18.461Z,78.27
2016-11-25T09:53:29.492Z,78.75
2016-11-25T09:54:40.736Z,78.08
2016-11-25T09:55:51.772Z,77.8
2016-11-25T09:57:02.832Z,77.13
2016-11-25T09:58:13.941Z,77.89
2016-11-25T09:59:25.177Z,78.71
2016-11-25T10:00:36.212Z,78.71
2016-11-25T10:01:47.252Z,78.71
2016-11-25T10:02:58.289Z,79.19
2016-11-25T10:04:09.375Z,78.94
2016-11-25T10:05:20.408Z,78.75
2016-11-25T10:06:31.448Z,76.37
2016-11-25T10:07:42.494Z,75.93
2016-11-25T10:08:53.736Z,75.45
2016-11-25T10:10:04.830Z,75.93
2016-11-25T10:11:16.065Z,75.74
2016-11-25T10:12:27.118Z,74.79
2016-11-25T10:13:38.363Z,74.21
2016-11-25T10:14:49.400Z,74.21
2016-11-25T10:16:00.481Z,75.64
2016-11-25T10:17:11.528Z,75.74
2016-11-25T10:18:22.566Z,74.73
2016-11-25T10:19:33.613Z,72.82
2016-11-25T10:20:44.663Z,73.11
2016-11-25T10:21:55.738Z,71.87
2016-11-25T10:23:06.786Z,72.72
2016-11-25T10:24:17.839Z,72.92
2016-11-25T10:25:28.886Z,72.92
2016-11-25T10:26:39.915Z,72.72
2016-11-25T10:27:51.021Z,71.33
2016-11-25T10:29:02.072Z,70.76
2016-11-25T10:30:13.116Z,71.14
2016-11-25T10:31:24.155Z,71.33
2016-11-25T10:32:35.200Z,71.48
2016-11-25T10:33:46.291Z,70.82
2016-11-25T10:34:57.331Z,70.25
2016-11-25T10:36:08.389Z,70.53
2016-11-25T10:37:19.426Z,71.96
2016-11-25T10:38:30.468Z,70.92
2016-11-25T10:39:41.574Z,70.06
2016-11-25T10:40:52.615Z,69.77
2016-11-25T10:42:03.642Z,70.15
2016-11-25T10:43:14.886Z,70.72
2016-11-25T10:44:25.936Z,70.34
2016-11-25T10:45:37.027Z,71.68
2016-11-25T10:46:48.262Z,70.53
2016-11-25T10:47:59.315Z,71.68
2016-11-25T10:49:10.367Z,72.34
2016-11-25T10:50:21.402Z,71.87
2016-11-25T10:51:32.491Z,70.97
2016-11-25T10:52:43.544Z,73.65
2016-11-25T10:53:54.591Z,71.64
2016-11-25T10:55:05.633Z,71.55
2016-11-25T10:56:16.668Z,72.41
2016-11-25T10:57:27.749Z,71.68
2016-11-25T10:58:38.777Z,70.63
2016-11-25T10:59:49.833Z,70.44
2016-11-25T11:01:01.088Z,70.06
2016-11-25T11:02:12.122Z,71.58
2016-11-25T11:03:23.210Z,70.72
2016-11-25T11:04:34.656Z,71.11
2016-11-25T11:05:45.687Z,71.87
2016-11-25T11:06:56.729Z,71.3
2016-11-25T11:08:07.767Z,71.87
2016-11-25T11:09:18.876Z,70.44
2016-11-25T11:10:29.920Z,71.3
2016-11-25T11:11:40.966Z,70.34
2016-11-25T11:12:52.210Z,71.2
2016-11-25T11:14:03.259Z,72.41
2016-11-25T11:15:14.350Z,72.02
2016-11-25T11:16:25.382Z,73.36
2016-11-25T11:17:36.426Z,74.18
2016-11-25T11:18:47.463Z,73.89
2016-11-25T11:19:58.518Z,73.41
2016-11-25T11:21:09.607Z,72.6
2016-11-25T11:22:20.639Z,72.69
2016-11-25T11:23:31.700Z,73.45
2016-11-25T11:24:42.944Z,71.73
2016-11-25T11:25:53.974Z,70.59
2016-11-25T11:27:05.255Z,71.73
2016-11-25T11:28:16.494Z,73.83
2016-11-25T11:29:27.537Z,73.93
2016-11-25T11:30:38.572Z,73.65
2016-11-25T11:31:49.609Z,72.88
2016-11-25T11:33:00.901Z,73.41
2016-11-25T11:34:11.942Z,74.18
2016-11-25T11:35:22.972Z,72.31
2016-11-25T11:36:34.012Z,72.12
2016-11-25T11:37:45.243Z,72.21
2016-11-25T11:38:56.360Z,73.26
2016-11-25T11:40:07.587Z,73.26
2016-11-25T11:41:18.639Z,72.6
2016-11-25T11:42:29.894Z,72.31
2016-11-25T11:43:40.924Z,71.45
2016-11-25T11:44:52.011Z,71.93
2016-11-25T11:46:03.038Z,71.83
2016-11-25T11:47:14.071Z,72.12
2016-11-25T11:48:25.303Z,70.88
2016-11-25T11:49:36.352Z,70.21
2016-11-25T11:50:47.427Z,70.94
2016-11-25T11:51:58.465Z,71.13
2016-11-25T11:53:09.502Z,72.37
2016-11-25T11:54:20.565Z,72.65
2016-11-25T11:55:31.603Z,71.8
2016-11-25T11:56:42.688Z,70.47
2016-11-25T11:57:53.729Z,71.8
2016-11-25T11:59:04.764Z,73.41
2016-11-25T12:00:15.796Z,72.42
2016-11-25T12:01:26.827Z,72.05
2016-11-25T12:02:37.915Z,72.94
2016-11-25T12:03:49.153Z,73.32
2016-11-25T12:05:00.585Z,70.84
2016-11-25T12:06:11.614Z,71.7
2016-11-25T12:07:22.627Z,73.17
2016-11-25T12:08:33.714Z,72.78
2016-11-25T12:09:44.764Z,70.97
2016-11-25T12:10:55.794Z,72.08
2016-11-25T12:12:06.818Z,73.32
2016-11-25T12:13:17.886Z,72.27
2016-11-25T12:14:28.985Z,72.56
2016-11-25T12:15:40.010Z,72.94
2016-11-25T12:16:51.051Z,73.13
2016-11-25T12:18:02.097Z,73.61
2016-11-25T12:19:13.138Z,72.46
2016-11-25T12:20:24.228Z,72.71
2016-11-25T12:21:35.270Z,73.51
2016-11-25T12:22:46.504Z,74.08
2016-11-25T12:23:57.568Z,72.5
2016-11-25T12:25:08.589Z,70.02
2016-11-25T12:26:19.673Z,70.12
2016-11-25T12:27:30.706Z,70.63
2016-11-25T12:28:41.740Z,70.63
2016-11-25T12:29:52.782Z,70.15
2016-11-25T12:31:03.809Z,68.57
2016-11-25T12:32:14.887Z,68.66
2016-11-25T12:33:26.116Z,68.85
2016-11-25T12:34:37.152Z,68.85
2016-11-25T12:35:48.184Z,68.09
2016-11-25T12:36:59.221Z,68.95
2016-11-25T12:38:10.296Z,69.81
2016-11-25T12:39:21.361Z,69.23
2016-11-25T12:40:32.392Z,69.43
2016-11-25T12:41:43.416Z,69.04
2016-11-25T12:42:54.448Z,67.42
2016-11-25T12:44:05.530Z,67.9
2016-11-25T12:45:16.591Z,68.09
2016-11-25T12:46:27.626Z,69.68
2016-11-25T12:47:38.690Z,68.44
2016-11-25T12:48:49.720Z,69.2
2016-11-25T12:50:00.999Z,69.77
2016-11-25T12:51:12.030Z,70.25
2016-11-25T12:52:23.066Z,70.4
2016-11-25T12:53:34.152Z,70.12
2016-11-25T12:54:45.177Z,70.59
2016-11-25T12:55:56.253Z,71.17
2016-11-25T12:57:07.298Z,70.69
2016-11-25T12:58:18.321Z,71.83
2016-11-25T12:59:29.362Z,71.64
2016-11-25T13:00:40.396Z,71.83
2016-11-25T13:01:51.533Z,71.07
2016-11-25T13:03:02.780Z,71.36
2016-11-25T13:04:13.816Z,71.55
2016-11-25T13:05:24.853Z,71.93
2016-11-25T13:06:35.891Z,70.5
2016-11-25T13:07:46.974Z,72.08
2016-11-25T13:08:58.012Z,72.27
2016-11-25T13:10:09.081Z,71.7
2016-11-25T13:11:20.308Z,72.56
2016-11-25T13:12:31.339Z,73.22
2016-11-25T13:13:42.424Z,74.94
2016-11-25T13:14:53.460Z,75.67
2016-11-25T13:16:04.696Z,74.75
2016-11-25T13:17:15.725Z,73.51
2016-11-25T13:18:26.751Z,74.65
2016-11-25T13:19:37.830Z,75.13
2016-11-25T13:20:48.879Z,74.37
2016-11-25T13:21:59.907Z,73.7
2016-11-25T13:23:10.946Z,73.51
2016-11-25T13:24:21.973Z,72.08
2016-11-25T13:25:33.073Z,73.8
2016-11-25T13:26:44.099Z,73.7
2016-11-25T13:27:55.122Z,73.7
2016-11-25T13:29:06.149Z,73.7
2016-11-25T13:30:17.389Z,73.41
2016-11-25T13:31:28.680Z,74.94
2016-11-25T13:32:39.715Z,75.6
2016-11-25T13:33:50.769Z,73.7
2016-11-25T13:35:01.818Z,73.32
2016-11-25T13:36:13.072Z,73.13
2016-11-25T13:37:24.172Z,73.13
2016-11-25T13:38:35.208Z,74.75
2016-11-25T13:39:46.228Z,74.08
2016-11-25T13:40:57.454Z,74.43
2016-11-25T13:42:08.484Z,74.71
2016-11-25T13:43:19.550Z,75.38
2016-11-25T13:44:30.607Z,76.76
2016-11-25T13:45:42.042Z,76.2
2016-11-25T13:46:53.271Z,77.34
2016-11-25T13:48:04.305Z,77.15
2016-11-25T13:49:15.605Z,79.43
2016-11-25T13:50:26.625Z,78.38
2016-11-25T13:51:37.649Z,77.34
2016-11-25T13:52:48.670Z,77.81
2016-11-25T13:53:59.700Z,78.38
2016-11-25T13:55:10.785Z,79.62
2016-11-25T13:56:21.823Z,80.1
2016-11-25T13:57:33.078Z,80.57
2016-11-25T13:58:44.310Z,79.72
2016-11-25T13:59:55.343Z,80.19
2016-11-25T14:01:06.416Z,79.96
2016-11-25T14:02:17.468Z,81.48
2016-11-25T14:03:28.489Z,81.01
2016-11-25T14:04:39.509Z,80.72
2016-11-25T14:05:50.541Z,82.15
2016-11-25T14:07:01.623Z,83.48
2016-11-25T14:08:12.855Z,83.58
2016-11-25T14:09:23.889Z,83.1
2016-11-25T14:10:34.921Z,83.95
2016-11-25T14:11:46.142Z,85.19
2016-11-25T14:12:57.219Z,85.86
2016-11-25T14:14:08.237Z,85.76
2016-11-25T14:15:19.286Z,86.24
2016-11-25T14:16:30.514Z,86.19
2016-11-25T14:17:41.544Z,86.57
2016-11-25T14:18:52.621Z,86.29
2016-11-25T14:20:03.644Z,86.38
2016-11-25T14:21:14.688Z,86.57
2016-11-25T14:22:25.717Z,88.28
2016-11-25T14:23:36.961Z,88.09
2016-11-25T14:24:48.054Z,88.47
2016-11-25T14:25:59.079Z,88.38
2016-11-25T14:27:10.310Z,87.43
2016-11-25T14:28:21.340Z,88.43
2016-11-25T14:29:32.379Z,88.9
2016-11-25T14:30:43.454Z,89
2016-11-25T14:31:54.508Z,89.57
2016-11-25T14:33:05.537Z,89.86
2016-11-25T14:34:16.760Z,90.14
2016-11-25T14:35:27.780Z,90.33
2016-11-25T14:36:39.101Z,90.99
2016-11-25T14:37:50.135Z,90.71
2016-11-25T14:39:01.160Z,92.23
2016-11-25T14:40:12.395Z,92.71
2016-11-25T14:41:23.407Z,92.51
2016-11-25T14:42:34.496Z,92.8
2016-11-25T14:43:45.537Z,92.61
2016-11-25T14:44:56.584Z,92.61
2016-11-25T14:46:07.615Z,93.41
2016-11-25T14:47:18.650Z,94.51
2016-11-25T14:48:29.724Z,93.89
2016-11-25T14:49:40.751Z,93.32
2016-11-25T14:50:51.779Z,94.56
2016-11-25T14:52:02.824Z,94.18
2016-11-25T14:53:13.877Z,95.22
2016-11-25T14:54:24.950Z,95.12
2016-11-25T14:55:35.983Z,95.51
2016-11-25T14:56:47.234Z,95.7
2016-11-25T14:57:58.261Z,95.41
2016-11-25T14:59:09.559Z,96.83
2016-11-25T15:00:20.635Z,96.26
2016-11-25T15:01:31.875Z,97.02
2016-11-25T15:02:42.904Z,97.88
2016-11-25T15:03:54.142Z,97.5
2016-11-25T15:05:05.368Z,98.26
2016-11-25T15:06:16.451Z,98.45
2016-11-25T15:07:27.474Z,98.16
2016-11-25T15:08:38.495Z,97.97
2016-11-25T15:09:49.527Z,98.87
2016-11-25T15:11:00.587Z,98.68
2016-11-25T15:12:11.863Z,98.87
2016-11-25T15:13:22.888Z,99.26
2016-11-25T15:14:33.913Z,99.06
2016-11-25T15:15:45.157Z,99.82
2016-11-25T15:16:56.182Z,99.99